sensor_id;sensor_type;location;lat;lon;timestamp;temperature;humidity
27162;DHT22;54464;50.558;9.704;2023-01-15T00:00:58;8.60;99.90
27162;DHT22;54464;50.558;9.704;2023-01-15T00:03:24;8.60;99.90
27162;DHT22;54464;50.558;9.704;2023-01-15T00:05:50;8.60;99.90
27162;DHT22;54464;50.558;9.704;2023-01-15T00:08:16;8.50;99.90
27162;DHT22;54464;50.558;9.704;2023-01-15T00:10:41;8.50;99.90
27162;DHT22;54464;50.558;9.704;2023-01-15T00:13:07;8.50;99.90
27162;DHT22;54464;50.558;9.704;2023-01-15T00:15:33;8.60;99.90
27162;DHT22;54464;50.558;9.704;2023-01-15T00:17:58;8.60;99.90
27162;DHT22;54464;50.558;9.704;2023-01-15T00:20:24;8.60;99.90
27162;DHT22;54464;50.558;9.704;2023-01-15T00:22:50;8.60;99.90
27162;DHT22;54464;50.558;9.704;2023-01-15T00:25:15;8.60;99.90
27162;DHT22;54464;50.558;9.704;2023-01-15T00:28:00;8.60;99.90
27162;DHT22;54464;50.558;9.704;2023-01-15T00:30:25;8.60;99.90
27162;DHT22;54464;50.558;9.704;2023-01-15T00:32:51;8.60;99.90
27162;DHT22;54464;50.558;9.704;2023-01-15T00:35:20;8.70;99.90
27162;DHT22;54464;50.558;9.704;2023-01-15T00:37:46;8.60;99.90
27162;DHT22;54464;50.558;9.704;2023-01-15T00:40:13;8.60;99.90
27162;DHT22;54464;50.558;9.704;2023-01-15T00:42:39;8.70;99.90
27162;DHT22;54464;50.558;9.704;2023-01-15T00:45:06;8.70;99.90
27162;DHT22;54464;50.558;9.704;2023-01-15T00:47:36;8.70;99.90
27162;DHT22;54464;50.558;9.704;2023-01-15T00:50:04;8.70;99.90
27162;DHT22;54464;50.558;9.704;2023-01-15T00:52:30;8.70;99.90
27162;DHT22;54464;50.558;9.704;2023-01-15T00:54:56;8.60;99.90
27162;DHT22;54464;50.558;9.704;2023-01-15T00:57:21;8.70;99.90
27162;DHT22;54464;50.558;9.704;2023-01-15T00:59:47;8.70;99.90
27162;DHT22;54464;50.558;9.704;2023-01-15T01:02:13;8.70;99.90
27162;DHT22;54464;50.558;9.704;2023-01-15T01:04:41;8.70;99.90
27162;DHT22;54464;50.558;9.704;2023-01-15T01:07:06;8.70;99.90
27162;DHT22;54464;50.558;9.704;2023-01-15T01:09:32;8.70;99.90
27162;DHT22;54464;50.558;9.704;2023-01-15T01:12:01;8.70;99.90
27162;DHT22;54464;50.558;9.704;2023-01-15T01:14:27;8.80;99.90
27162;DHT22;54464;50.558;9.704;2023-01-15T01:16:53;8.70;99.90
27162;DHT22;54464;50.558;9.704;2023-01-15T01:19:21;8.80;99.90
27162;DHT22;54464;50.558;9.704;2023-01-15T01:21:48;8.70;99.90
27162;DHT22;54464;50.558;9.704;2023-01-15T01:24:23;8.80;99.90
27162;DHT22;54464;50.558;9.704;2023-01-15T01:26:49;8.70;99.90
27162;DHT22;54464;50.558;9.704;2023-01-15T01:29:18;8.70;99.90
27162;DHT22;54464;50.558;9.704;2023-01-15T01:31:43;8.70;99.90
27162;DHT22;54464;50.558;9.704;2023-01-15T01:34:10;8.80;99.90
27162;DHT22;54464;50.558;9.704;2023-01-15T01:36:38;8.80;99.90
27162;DHT22;54464;50.558;9.704;2023-01-15T01:39:05;8.80;99.90
27162;DHT22;54464;50.558;9.704;2023-01-15T01:41:31;8.70;99.90
27162;DHT22;54464;50.558;9.704;2023-01-15T01:44:02;8.80;99.90
27162;DHT22;54464;50.558;9.704;2023-01-15T01:46:30;8.80;99.90
27162;DHT22;54464;50.558;9.704;2023-01-15T01:49:01;8.70;99.90
27162;DHT22;54464;50.558;9.704;2023-01-15T01:51:31;8.70;99.90
27162;DHT22;54464;50.558;9.704;2023-01-15T01:53:59;8.70;99.90
27162;DHT22;54464;50.558;9.704;2023-01-15T01:56:26;8.70;99.90
27162;DHT22;54464;50.558;9.704;2023-01-15T01:58:53;8.70;99.90
27162;DHT22;54464;50.558;9.704;2023-01-15T02:01:21;8.50;99.90
27162;DHT22;54464;50.558;9.704;2023-01-15T02:03:48;8.10;99.90
27162;DHT22;54464;50.558;9.704;2023-01-15T02:06:14;7.80;99.90
27162;DHT22;54464;50.558;9.704;2023-01-15T02:08:41;7.60;99.90
27162;DHT22;54464;50.558;9.704;2023-01-15T02:11:11;7.50;99.90
27162;DHT22;54464;50.558;9.704;2023-01-15T02:13:48;7.50;99.90
27162;DHT22;54464;50.558;9.704;2023-01-15T02:16:25;7.40;99.90
27162;DHT22;54464;50.558;9.704;2023-01-15T02:22:03;7.40;99.90
27162;DHT22;54464;50.558;9.704;2023-01-15T02:27:22;7.20;99.90
27162;DHT22;54464;50.558;9.704;2023-01-15T02:30:08;7.10;99.90
27162;DHT22;54464;50.558;9.704;2023-01-15T02:32:39;7.00;99.90
27162;DHT22;54464;50.558;9.704;2023-01-15T02:35:12;6.90;99.90
27162;DHT22;54464;50.558;9.704;2023-01-15T02:37:44;6.90;99.90
27162;DHT22;54464;50.558;9.704;2023-01-15T02:40:11;6.90;99.90
27162;DHT22;54464;50.558;9.704;2023-01-15T02:42:40;6.90;99.90
27162;DHT22;54464;50.558;9.704;2023-01-15T02:45:08;6.90;99.90
27162;DHT22;54464;50.558;9.704;2023-01-15T02:47:37;6.90;99.90
27162;DHT22;54464;50.558;9.704;2023-01-15T02:50:08;6.80;99.90
27162;DHT22;54464;50.558;9.704;2023-01-15T02:52:41;6.80;99.90
27162;DHT22;54464;50.558;9.704;2023-01-15T02:55:31;6.80;99.90
27162;DHT22;54464;50.558;9.704;2023-01-15T02:58:03;6.80;99.90
27162;DHT22;54464;50.558;9.704;2023-01-15T03:00:32;6.60;99.90
27162;DHT22;54464;50.558;9.704;2023-01-15T03:03:13;6.50;99.90
27162;DHT22;54464;50.558;9.704;2023-01-15T03:06:00;6.40;99.90
27162;DHT22;54464;50.558;9.704;2023-01-15T03:08:28;6.30;99.90
27162;DHT22;54464;50.558;9.704;2023-01-15T03:11:11;6.20;99.90
27162;DHT22;54464;50.558;9.704;2023-01-15T03:13:50;6.10;99.90
27162;DHT22;54464;50.558;9.704;2023-01-15T03:16:28;6.10;99.90
27162;DHT22;54464;50.558;9.704;2023-01-15T03:19:35;6.00;99.90
27162;DHT22;54464;50.558;9.704;2023-01-15T03:22:31;5.90;99.90
27162;DHT22;54464;50.558;9.704;2023-01-15T03:25:28;5.90;99.90
27162;DHT22;54464;50.558;9.704;2023-01-15T03:28:00;5.80;99.90
27162;DHT22;54464;50.558;9.704;2023-01-15T03:30:27;5.80;99.90
27162;DHT22;54464;50.558;9.704;2023-01-15T03:32:54;5.70;99.90
27162;DHT22;54464;50.558;9.704;2023-01-15T03:38:12;5.70;99.90
27162;DHT22;54464;50.558;9.704;2023-01-15T03:43:49;5.60;99.90
27162;DHT22;54464;50.558;9.704;2023-01-15T03:49:30;5.50;99.90
27162;DHT22;54464;50.558;9.704;2023-01-15T03:52:06;5.50;99.90
27162;DHT22;54464;50.558;9.704;2023-01-15T03:54:52;5.40;99.90
27162;DHT22;54464;50.558;9.704;2023-01-15T03:59:56;5.30;99.90
27162;DHT22;54464;50.558;9.704;2023-01-15T04:02:24;5.30;99.90
27162;DHT22;54464;50.558;9.704;2023-01-15T04:04:51;5.30;99.90
27162;DHT22;54464;50.558;9.704;2023-01-15T04:07:18;5.20;99.90
27162;DHT22;54464;50.558;9.704;2023-01-15T04:09:45;5.30;99.90
27162;DHT22;54464;50.558;9.704;2023-01-15T04:12:11;5.20;99.90
27162;DHT22;54464;50.558;9.704;2023-01-15T04:14:36;5.10;99.90
27162;DHT22;54464;50.558;9.704;2023-01-15T04:17:02;5.10;99.90
27162;DHT22;54464;50.558;9.704;2023-01-15T04:19:28;5.10;99.90
27162;DHT22;54464;50.558;9.704;2023-01-15T04:21:53;5.10;99.90
27162;DHT22;54464;50.558;9.704;2023-01-15T04:24:19;5.10;99.90
27162;DHT22;54464;50.558;9.704;2023-01-15T04:26:45;5.10;99.90
27162;DHT22;54464;50.558;9.704;2023-01-15T04:29:10;5.00;99.90
27162;DHT22;54464;50.558;9.704;2023-01-15T04:31:36;5.00;99.90
27162;DHT22;54464;50.558;9.704;2023-01-15T04:34:02;4.90;99.90
27162;DHT22;54464;50.558;9.704;2023-01-15T04:36:28;4.80;99.90
27162;DHT22;54464;50.558;9.704;2023-01-15T04:38:54;4.80;99.90
27162;DHT22;54464;50.558;9.704;2023-01-15T04:41:22;4.70;99.90
27162;DHT22;54464;50.558;9.704;2023-01-15T04:44:06;4.70;99.90
27162;DHT22;54464;50.558;9.704;2023-01-15T04:46:40;4.70;99.90
27162;DHT22;54464;50.558;9.704;2023-01-15T04:49:12;4.60;99.90
27162;DHT22;54464;50.558;9.704;2023-01-15T04:51:38;4.60;99.90
27162;DHT22;54464;50.558;9.704;2023-01-15T04:54:05;4.60;99.90
27162;DHT22;54464;50.558;9.704;2023-01-15T04:56:35;4.60;99.90
27162;DHT22;54464;50.558;9.704;2023-01-15T04:59:01;4.60;99.90
27162;DHT22;54464;50.558;9.704;2023-01-15T05:01:27;4.50;99.90
27162;DHT22;54464;50.558;9.704;2023-01-15T05:03:53;4.50;99.90
27162;DHT22;54464;50.558;9.704;2023-01-15T05:06:19;4.40;99.90
27162;DHT22;54464;50.558;9.704;2023-01-15T05:08:45;4.40;99.90
27162;DHT22;54464;50.558;9.704;2023-01-15T05:11:11;4.30;99.90
27162;DHT22;54464;50.558;9.704;2023-01-15T05:13:36;4.30;99.90
27162;DHT22;54464;50.558;9.704;2023-01-15T05:18:34;4.20;99.90
27162;DHT22;54464;50.558;9.704;2023-01-15T05:21:00;4.20;99.90
27162;DHT22;54464;50.558;9.704;2023-01-15T05:23:25;4.10;99.90
27162;DHT22;54464;50.558;9.704;2023-01-15T05:25:51;4.10;99.90
27162;DHT22;54464;50.558;9.704;2023-01-15T05:28:17;4.10;99.90
27162;DHT22;54464;50.558;9.704;2023-01-15T05:30:43;4.10;99.90
27162;DHT22;54464;50.558;9.704;2023-01-15T05:33:09;4.10;99.90
27162;DHT22;54464;50.558;9.704;2023-01-15T05:35:34;4.00;99.90
27162;DHT22;54464;50.558;9.704;2023-01-15T05:38:00;4.00;99.90
27162;DHT22;54464;50.558;9.704;2023-01-15T05:40:28;4.00;99.90
27162;DHT22;54464;50.558;9.704;2023-01-15T05:42:53;4.00;99.90
27162;DHT22;54464;50.558;9.704;2023-01-15T05:45:19;4.00;99.90
27162;DHT22;54464;50.558;9.704;2023-01-15T05:47:45;4.00;99.90
27162;DHT22;54464;50.558;9.704;2023-01-15T05:50:11;4.00;99.90
27162;DHT22;54464;50.558;9.704;2023-01-15T05:52:36;3.90;99.90
27162;DHT22;54464;50.558;9.704;2023-01-15T05:55:02;3.90;99.90
27162;DHT22;54464;50.558;9.704;2023-01-15T05:57:28;3.90;99.90
27162;DHT22;54464;50.558;9.704;2023-01-15T05:59:54;3.80;99.90
27162;DHT22;54464;50.558;9.704;2023-01-15T06:02:20;3.80;99.90
27162;DHT22;54464;50.558;9.704;2023-01-15T06:04:47;3.80;99.90
27162;DHT22;54464;50.558;9.704;2023-01-15T06:07:12;3.70;99.90
27162;DHT22;54464;50.558;9.704;2023-01-15T06:09:38;3.80;99.90
27162;DHT22;54464;50.558;9.704;2023-01-15T06:12:04;3.70;99.90
27162;DHT22;54464;50.558;9.704;2023-01-15T06:14:29;3.70;99.90
27162;DHT22;54464;50.558;9.704;2023-01-15T06:16:55;3.70;99.90
27162;DHT22;54464;50.558;9.704;2023-01-15T06:19:21;3.70;99.90
27162;DHT22;54464;50.558;9.704;2023-01-15T06:21:46;3.70;99.90
27162;DHT22;54464;50.558;9.704;2023-01-15T06:24:13;3.70;99.90
27162;DHT22;54464;50.558;9.704;2023-01-15T06:26:41;3.70;99.90
27162;DHT22;54464;50.558;9.704;2023-01-15T06:29:06;3.70;99.90
27162;DHT22;54464;50.558;9.704;2023-01-15T06:31:32;3.70;99.90
27162;DHT22;54464;50.558;9.704;2023-01-15T06:33:58;3.70;99.90
27162;DHT22;54464;50.558;9.704;2023-01-15T06:36:25;3.60;99.90
27162;DHT22;54464;50.558;9.704;2023-01-15T06:38:51;3.70;99.90
27162;DHT22;54464;50.558;9.704;2023-01-15T06:41:24;3.70;99.90
27162;DHT22;54464;50.558;9.704;2023-01-15T06:44:14;3.70;99.90
27162;DHT22;54464;50.558;9.704;2023-01-15T06:47:02;3.70;99.90
27162;DHT22;54464;50.558;9.704;2023-01-15T06:49:48;3.70;99.90
27162;DHT22;54464;50.558;9.704;2023-01-15T06:52:14;3.70;99.90
27162;DHT22;54464;50.558;9.704;2023-01-15T06:54:39;3.60;99.90
27162;DHT22;54464;50.558;9.704;2023-01-15T06:57:05;3.70;99.90
27162;DHT22;54464;50.558;9.704;2023-01-15T06:59:31;3.60;99.90
27162;DHT22;54464;50.558;9.704;2023-01-15T07:01:57;3.60;99.90
27162;DHT22;54464;50.558;9.704;2023-01-15T07:04:22;3.60;99.90
27162;DHT22;54464;50.558;9.704;2023-01-15T07:06:48;3.60;99.90
27162;DHT22;54464;50.558;9.704;2023-01-15T07:09:13;3.60;99.90
27162;DHT22;54464;50.558;9.704;2023-01-15T07:11:39;3.60;99.90
27162;DHT22;54464;50.558;9.704;2023-01-15T07:14:21;3.60;99.90
27162;DHT22;54464;50.558;9.704;2023-01-15T07:16:48;3.70;99.90
27162;DHT22;54464;50.558;9.704;2023-01-15T07:19:14;3.70;99.90
27162;DHT22;54464;50.558;9.704;2023-01-15T07:21:40;3.70;99.90
27162;DHT22;54464;50.558;9.704;2023-01-15T07:24:06;3.60;99.90
27162;DHT22;54464;50.558;9.704;2023-01-15T07:26:32;3.60;99.90
27162;DHT22;54464;50.558;9.704;2023-01-15T07:28:58;3.70;99.90
27162;DHT22;54464;50.558;9.704;2023-01-15T07:31:24;3.60;99.90
27162;DHT22;54464;50.558;9.704;2023-01-15T07:33:50;3.60;99.90
27162;DHT22;54464;50.558;9.704;2023-01-15T07:36:15;3.50;99.90
27162;DHT22;54464;50.558;9.704;2023-01-15T07:38:41;3.50;99.90
27162;DHT22;54464;50.558;9.704;2023-01-15T07:41:07;3.50;99.90
27162;DHT22;54464;50.558;9.704;2023-01-15T07:43:51;3.50;99.90
27162;DHT22;54464;50.558;9.704;2023-01-15T07:46:35;3.50;99.90
27162;DHT22;54464;50.558;9.704;2023-01-15T07:49:19;3.50;99.90
27162;DHT22;54464;50.558;9.704;2023-01-15T07:52:03;3.50;99.90
27162;DHT22;54464;50.558;9.704;2023-01-15T07:54:29;3.40;99.90
27162;DHT22;54464;50.558;9.704;2023-01-15T07:56:55;3.40;99.90
27162;DHT22;54464;50.558;9.704;2023-01-15T07:59:21;3.40;99.90
27162;DHT22;54464;50.558;9.704;2023-01-15T08:01:47;3.40;99.90
27162;DHT22;54464;50.558;9.704;2023-01-15T08:04:12;3.40;99.90
27162;DHT22;54464;50.558;9.704;2023-01-15T08:06:38;3.40;99.90
27162;DHT22;54464;50.558;9.704;2023-01-15T08:09:04;3.40;99.90
27162;DHT22;54464;50.558;9.704;2023-01-15T08:11:31;3.40;99.90
27162;DHT22;54464;50.558;9.704;2023-01-15T08:14:16;3.40;99.90
27162;DHT22;54464;50.558;9.704;2023-01-15T08:17:00;3.40;99.90
27162;DHT22;54464;50.558;9.704;2023-01-15T08:19:25;3.50;99.90
27162;DHT22;54464;50.558;9.704;2023-01-15T08:21:56;3.40;99.90
27162;DHT22;54464;50.558;9.704;2023-01-15T08:24:23;3.30;99.90
27162;DHT22;54464;50.558;9.704;2023-01-15T08:26:49;3.30;99.90
27162;DHT22;54464;50.558;9.704;2023-01-15T08:29:15;3.40;99.90
27162;DHT22;54464;50.558;9.704;2023-01-15T08:31:40;3.30;99.90
27162;DHT22;54464;50.558;9.704;2023-01-15T08:34:07;3.30;99.90
27162;DHT22;54464;50.558;9.704;2023-01-15T08:36:33;3.20;99.90
27162;DHT22;54464;50.558;9.704;2023-01-15T08:38:58;3.20;99.90
27162;DHT22;54464;50.558;9.704;2023-01-15T08:41:24;3.10;99.90
27162;DHT22;54464;50.558;9.704;2023-01-15T08:43:50;3.20;99.90
27162;DHT22;54464;50.558;9.704;2023-01-15T08:46:16;3.10;99.90
27162;DHT22;54464;50.558;9.704;2023-01-15T08:48:41;3.10;99.90
27162;DHT22;54464;50.558;9.704;2023-01-15T08:51:09;3.10;99.90
27162;DHT22;54464;50.558;9.704;2023-01-15T08:53:36;3.10;99.90
27162;DHT22;54464;50.558;9.704;2023-01-15T08:56:02;3.10;99.90
27162;DHT22;54464;50.558;9.704;2023-01-15T08:58:29;3.10;99.90
27162;DHT22;54464;50.558;9.704;2023-01-15T09:00:56;3.00;99.90
27162;DHT22;54464;50.558;9.704;2023-01-15T09:03:28;3.00;99.90
27162;DHT22;54464;50.558;9.704;2023-01-15T09:05:53;2.90;99.90
27162;DHT22;54464;50.558;9.704;2023-01-15T09:08:22;2.90;99.90
27162;DHT22;54464;50.558;9.704;2023-01-15T09:10:48;2.80;99.90
27162;DHT22;54464;50.558;9.704;2023-01-15T09:13:13;2.80;99.90
27162;DHT22;54464;50.558;9.704;2023-01-15T09:15:39;2.70;99.90
27162;DHT22;54464;50.558;9.704;2023-01-15T09:18:05;2.70;99.90
27162;DHT22;54464;50.558;9.704;2023-01-15T09:20:30;2.70;99.90
27162;DHT22;54464;50.558;9.704;2023-01-15T09:22:56;2.60;99.90
27162;DHT22;54464;50.558;9.704;2023-01-15T09:25:22;2.60;99.90
27162;DHT22;54464;50.558;9.704;2023-01-15T09:27:49;2.50;99.90
27162;DHT22;54464;50.558;9.704;2023-01-15T09:30:21;2.40;99.90
27162;DHT22;54464;50.558;9.704;2023-01-15T09:32:48;2.40;99.90
27162;DHT22;54464;50.558;9.704;2023-01-15T09:35:14;2.30;99.90
27162;DHT22;54464;50.558;9.704;2023-01-15T09:37:39;2.20;99.90
27162;DHT22;54464;50.558;9.704;2023-01-15T09:40:06;2.30;99.90
27162;DHT22;54464;50.558;9.704;2023-01-15T09:42:54;2.20;99.90
27162;DHT22;54464;50.558;9.704;2023-01-15T09:45:27;2.10;99.90
27162;DHT22;54464;50.558;9.704;2023-01-15T09:56:03;2.00;99.90
27162;DHT22;54464;50.558;9.704;2023-01-15T09:58:35;2.00;99.90
27162;DHT22;54464;50.558;9.704;2023-01-15T10:01:02;2.00;99.90
27162;DHT22;54464;50.558;9.704;2023-01-15T10:03:39;1.90;99.90
27162;DHT22;54464;50.558;9.704;2023-01-15T10:06:26;1.90;99.90
27162;DHT22;54464;50.558;9.704;2023-01-15T10:09:03;1.90;99.90
27162;DHT22;54464;50.558;9.704;2023-01-15T10:11:42;1.80;99.90
27162;DHT22;54464;50.558;9.704;2023-01-15T10:25:15;1.60;99.90
27162;DHT22;54464;50.558;9.704;2023-01-15T10:27:45;1.70;99.90
27162;DHT22;54464;50.558;9.704;2023-01-15T10:30:16;1.70;99.90
27162;DHT22;54464;50.558;9.704;2023-01-15T10:32:46;1.80;99.90
27162;DHT22;54464;50.558;9.704;2023-01-15T10:38:08;1.80;99.90
27162;DHT22;54464;50.558;9.704;2023-01-15T10:45:53;2.00;99.90
27162;DHT22;54464;50.558;9.704;2023-01-15T10:48:46;1.90;99.90
27162;DHT22;54464;50.558;9.704;2023-01-15T10:51:22;2.00;99.90
27162;DHT22;54464;50.558;9.704;2023-01-15T10:56:55;2.00;99.90
27162;DHT22;54464;50.558;9.704;2023-01-15T10:59:50;2.00;99.90
27162;DHT22;54464;50.558;9.704;2023-01-15T11:04:51;2.10;99.90
27162;DHT22;54464;50.558;9.704;2023-01-15T11:07:25;2.20;99.90
27162;DHT22;54464;50.558;9.704;2023-01-15T11:09:51;2.20;99.90
27162;DHT22;54464;50.558;9.704;2023-01-15T11:12:24;2.30;99.90
27162;DHT22;54464;50.558;9.704;2023-01-15T11:14:51;2.30;99.90
27162;DHT22;54464;50.558;9.704;2023-01-15T11:17:40;2.40;99.90
27162;DHT22;54464;50.558;9.704;2023-01-15T11:20:33;2.40;99.90
27162;DHT22;54464;50.558;9.704;2023-01-15T11:23:11;2.50;99.90
27162;DHT22;54464;50.558;9.704;2023-01-15T11:25:37;2.50;99.90
27162;DHT22;54464;50.558;9.704;2023-01-15T11:28:09;2.60;99.90
27162;DHT22;54464;50.558;9.704;2023-01-15T11:30:40;2.70;99.90
27162;DHT22;54464;50.558;9.704;2023-01-15T11:33:21;2.70;99.90
27162;DHT22;54464;50.558;9.704;2023-01-15T11:35:52;2.80;99.90
27162;DHT22;54464;50.558;9.704;2023-01-15T11:38:23;2.90;99.90
27162;DHT22;54464;50.558;9.704;2023-01-15T11:41:01;2.90;99.90
27162;DHT22;54464;50.558;9.704;2023-01-15T11:43:29;3.00;99.90
27162;DHT22;54464;50.558;9.704;2023-01-15T11:49:09;3.10;99.90
27162;DHT22;54464;50.558;9.704;2023-01-15T11:51:54;3.20;99.90
27162;DHT22;54464;50.558;9.704;2023-01-15T11:54:22;3.30;99.90
27162;DHT22;54464;50.558;9.704;2023-01-15T11:56:49;3.40;99.90
27162;DHT22;54464;50.558;9.704;2023-01-15T11:59:17;3.50;99.90
27162;DHT22;54464;50.558;9.704;2023-01-15T12:01:52;3.60;99.90
27162;DHT22;54464;50.558;9.704;2023-01-15T12:04:37;3.60;99.90
27162;DHT22;54464;50.558;9.704;2023-01-15T12:07:05;3.70;99.90
27162;DHT22;54464;50.558;9.704;2023-01-15T12:20:27;4.10;99.90
27162;DHT22;54464;50.558;9.704;2023-01-15T12:28:31;4.40;99.90
27162;DHT22;54464;50.558;9.704;2023-01-15T12:31:11;4.40;99.90
27162;DHT22;54464;50.558;9.704;2023-01-15T12:33:52;4.60;99.90
27162;DHT22;54464;50.558;9.704;2023-01-15T12:39:04;4.80;99.90
27162;DHT22;54464;50.558;9.704;2023-01-15T12:41:34;4.90;99.90
27162;DHT22;54464;50.558;9.704;2023-01-15T12:44:39;4.90;99.90
27162;DHT22;54464;50.558;9.704;2023-01-15T12:47:39;5.00;99.90
27162;DHT22;54464;50.558;9.704;2023-01-15T12:50:23;5.00;99.90
27162;DHT22;54464;50.558;9.704;2023-01-15T12:53:18;5.00;99.90
27162;DHT22;54464;50.558;9.704;2023-01-15T12:56:41;5.00;99.90
27162;DHT22;54464;50.558;9.704;2023-01-15T13:04:01;5.00;99.90
27162;DHT22;54464;50.558;9.704;2023-01-15T13:06:28;5.10;99.90
27162;DHT22;54464;50.558;9.704;2023-01-15T13:09:00;5.20;99.90
27162;DHT22;54464;50.558;9.704;2023-01-15T13:11:27;5.20;99.90
27162;DHT22;54464;50.558;9.704;2023-01-15T13:13:52;5.20;99.90
27162;DHT22;54464;50.558;9.704;2023-01-15T13:21:30;5.10;99.90
27162;DHT22;54464;50.558;9.704;2023-01-15T13:26:56;5.20;99.90
27162;DHT22;54464;50.558;9.704;2023-01-15T13:32:22;5.10;99.90
27162;DHT22;54464;50.558;9.704;2023-01-15T13:37:52;5.10;99.90
27162;DHT22;54464;50.558;9.704;2023-01-15T13:40:38;5.00;99.90
27162;DHT22;54464;50.558;9.704;2023-01-15T13:43:06;5.00;99.90
27162;DHT22;54464;50.558;9.704;2023-01-15T13:45:47;5.00;99.90
27162;DHT22;54464;50.558;9.704;2023-01-15T13:48:20;5.10;99.90
27162;DHT22;54464;50.558;9.704;2023-01-15T13:50:53;5.20;99.90
27162;DHT22;54464;50.558;9.704;2023-01-15T13:53:26;5.10;99.90
27162;DHT22;54464;50.558;9.704;2023-01-15T13:55:58;5.10;99.90
27162;DHT22;54464;50.558;9.704;2023-01-15T13:58:29;5.10;99.90
27162;DHT22;54464;50.558;9.704;2023-01-15T14:03:32;5.30;99.90
27162;DHT22;54464;50.558;9.704;2023-01-15T14:06:01;5.20;99.90
27162;DHT22;54464;50.558;9.704;2023-01-15T14:08:41;5.10;99.90
27162;DHT22;54464;50.558;9.704;2023-01-15T14:11:36;5.10;99.90
27162;DHT22;54464;50.558;9.704;2023-01-15T14:23:24;4.90;99.90
27162;DHT22;54464;50.558;9.704;2023-01-15T14:34:16;4.80;99.90
27162;DHT22;54464;50.558;9.704;2023-01-15T14:36:58;4.80;99.90
27162;DHT22;54464;50.558;9.704;2023-01-15T14:44:44;4.50;99.90
27162;DHT22;54464;50.558;9.704;2023-01-15T14:47:24;4.50;99.90
27162;DHT22;54464;50.558;9.704;2023-01-15T14:50:00;4.50;99.90
27162;DHT22;54464;50.558;9.704;2023-01-15T14:52:26;4.50;99.90
27162;DHT22;54464;50.558;9.704;2023-01-15T14:54:52;4.40;99.90
27162;DHT22;54464;50.558;9.704;2023-01-15T14:57:20;4.40;99.90
27162;DHT22;54464;50.558;9.704;2023-01-15T14:59:58;4.50;99.90
27162;DHT22;54464;50.558;9.704;2023-01-15T15:02:38;4.40;99.90
27162;DHT22;54464;50.558;9.704;2023-01-15T15:05:15;4.50;99.90
27162;DHT22;54464;50.558;9.704;2023-01-15T15:07:46;4.50;99.90
27162;DHT22;54464;50.558;9.704;2023-01-15T15:22:55;4.40;99.90
27162;DHT22;54464;50.558;9.704;2023-01-15T15:25:24;4.40;99.90
27162;DHT22;54464;50.558;9.704;2023-01-15T15:28:08;4.40;99.90
27162;DHT22;54464;50.558;9.704;2023-01-15T15:30:35;4.50;99.90
27162;DHT22;54464;50.558;9.704;2023-01-15T15:33:04;4.50;99.90
27162;DHT22;54464;50.558;9.704;2023-01-15T15:35:32;4.40;99.90
27162;DHT22;54464;50.558;9.704;2023-01-15T15:38:03;4.40;99.90
27162;DHT22;54464;50.558;9.704;2023-01-15T15:40:34;4.40;99.90
27162;DHT22;54464;50.558;9.704;2023-01-15T15:45:52;4.40;99.90
27162;DHT22;54464;50.558;9.704;2023-01-15T15:48:36;4.40;99.90
27162;DHT22;54464;50.558;9.704;2023-01-15T15:54:25;4.30;99.90
27162;DHT22;54464;50.558;9.704;2023-01-15T15:57:07;4.30;99.90
27162;DHT22;54464;50.558;9.704;2023-01-15T15:59:44;4.30;99.90
27162;DHT22;54464;50.558;9.704;2023-01-15T16:04:54;4.30;99.90
27162;DHT22;54464;50.558;9.704;2023-01-15T16:07:28;4.30;99.90
27162;DHT22;54464;50.558;9.704;2023-01-15T16:10:46;4.30;99.90
27162;DHT22;54464;50.558;9.704;2023-01-15T16:13:05;4.30;99.90
27162;DHT22;54464;50.558;9.704;2023-01-15T16:15:39;4.30;99.90
27162;DHT22;54464;50.558;9.704;2023-01-15T16:18:14;4.30;99.90
27162;DHT22;54464;50.558;9.704;2023-01-15T16:20:41;4.30;99.90
27162;DHT22;54464;50.558;9.704;2023-01-15T16:23:24;4.30;99.90
27162;DHT22;54464;50.558;9.704;2023-01-15T16:26:16;4.30;99.90
27162;DHT22;54464;50.558;9.704;2023-01-15T16:28:54;4.20;99.90
27162;DHT22;54464;50.558;9.704;2023-01-15T16:31:21;4.30;99.90
27162;DHT22;54464;50.558;9.704;2023-01-15T16:33:56;4.20;99.90
27162;DHT22;54464;50.558;9.704;2023-01-15T16:36:23;4.20;99.90
27162;DHT22;54464;50.558;9.704;2023-01-15T16:38:51;4.20;99.90
27162;DHT22;54464;50.558;9.704;2023-01-15T16:41:25;4.20;99.90
27162;DHT22;54464;50.558;9.704;2023-01-15T16:43:58;4.20;99.90
27162;DHT22;54464;50.558;9.704;2023-01-15T16:46:30;4.20;99.90
27162;DHT22;54464;50.558;9.704;2023-01-15T16:49:26;4.20;99.90
27162;DHT22;54464;50.558;9.704;2023-01-15T16:51:54;4.20;99.90
27162;DHT22;54464;50.558;9.704;2023-01-15T16:56:58;4.20;99.90
27162;DHT22;54464;50.558;9.704;2023-01-15T17:04:29;4.00;99.90
27162;DHT22;54464;50.558;9.704;2023-01-15T17:07:04;4.00;99.90
27162;DHT22;54464;50.558;9.704;2023-01-15T17:09:35;4.10;99.90
27162;DHT22;54464;50.558;9.704;2023-01-15T17:12:06;4.00;99.90
27162;DHT22;54464;50.558;9.704;2023-01-15T17:14:32;4.00;99.90
27162;DHT22;54464;50.558;9.704;2023-01-15T17:17:22;3.90;99.90
27162;DHT22;54464;50.558;9.704;2023-01-15T17:19:50;3.70;99.90
27162;DHT22;54464;50.558;9.704;2023-01-15T17:22:25;3.60;99.90
27162;DHT22;54464;50.558;9.704;2023-01-15T17:24:55;3.50;99.90
27162;DHT22;54464;50.558;9.704;2023-01-15T17:27:22;3.40;99.90
27162;DHT22;54464;50.558;9.704;2023-01-15T17:29:48;3.40;99.90
27162;DHT22;54464;50.558;9.704;2023-01-15T17:32:30;3.40;99.90
27162;DHT22;54464;50.558;9.704;2023-01-15T17:34:56;3.50;99.90
27162;DHT22;54464;50.558;9.704;2023-01-15T17:37:22;3.50;99.90
27162;DHT22;54464;50.558;9.704;2023-01-15T17:39:48;3.50;99.90
27162;DHT22;54464;50.558;9.704;2023-01-15T17:42:16;3.60;99.90
27162;DHT22;54464;50.558;9.704;2023-01-15T17:44:42;3.50;99.90
27162;DHT22;54464;50.558;9.704;2023-01-15T17:47:11;3.60;99.90
27162;DHT22;54464;50.558;9.704;2023-01-15T17:49:37;3.60;99.90
27162;DHT22;54464;50.558;9.704;2023-01-15T17:52:06;3.60;99.90
27162;DHT22;54464;50.558;9.704;2023-01-15T17:54:32;3.60;99.90
27162;DHT22;54464;50.558;9.704;2023-01-15T17:57:30;3.60;99.90
27162;DHT22;54464;50.558;9.704;2023-01-15T18:00:15;3.60;99.90
27162;DHT22;54464;50.558;9.704;2023-01-15T18:03:01;3.60;99.90
27162;DHT22;54464;50.558;9.704;2023-01-15T18:05:47;3.60;99.90
27162;DHT22;54464;50.558;9.704;2023-01-15T18:08:14;3.70;99.90
27162;DHT22;54464;50.558;9.704;2023-01-15T18:10:43;3.60;99.90
27162;DHT22;54464;50.558;9.704;2023-01-15T18:13:08;3.70;99.90
27162;DHT22;54464;50.558;9.704;2023-01-15T18:15:37;3.70;99.90
27162;DHT22;54464;50.558;9.704;2023-01-15T18:18:03;3.70;99.90
27162;DHT22;54464;50.558;9.704;2023-01-15T18:20:28;3.80;99.90
27162;DHT22;54464;50.558;9.704;2023-01-15T18:22:54;3.80;99.90
27162;DHT22;54464;50.558;9.704;2023-01-15T18:25:19;3.80;99.90
27162;DHT22;54464;50.558;9.704;2023-01-15T18:27:45;3.70;99.90
27162;DHT22;54464;50.558;9.704;2023-01-15T18:30:13;3.80;99.90
27162;DHT22;54464;50.558;9.704;2023-01-15T18:32:39;3.80;99.90
27162;DHT22;54464;50.558;9.704;2023-01-15T18:35:06;3.80;99.90
27162;DHT22;54464;50.558;9.704;2023-01-15T18:37:32;3.80;99.90